Flight Track Log - Related Links

Times and Time Zones

All times are in EDT time to prevent confusion due to time zone crossing. See the SWA1385 flight status page for this flight to view local times or setup timezone preferences in your user account.

Time Position Orientation Groundspeed Altitude Reporting Facility
EDT Latitude Longitude Course Direction KTS MPH feet Rate Location/Type
Sat 03:04:33 PM 40.5025 -80.3483 270° West 164 189 4,300  Level Cleveland Center
Sat 03:05:33 PM 40.5047 -80.4356 272° West 201 231 7,500 3,500 Climbing Cleveland Center
Sat 03:06:33 PM 40.4861 -80.5175 253° West 232 267 11,300 3,050 Climbing Cleveland Center
Sat 03:07:33 PM 40.4258 -80.6022 227° Southwest 289 333 13,600 3,000 Climbing Cleveland Center
Sat 03:08:33 PM 40.3922 -80.7003 246° West 284 327 17,300 3,250 Climbing Cleveland Center
Sat 03:09:00 PM 40.4667 -81.0283 270° West  Level FlightAware Approximate
Sat 03:09:33 PM 40.4006 -80.8175 275° West 297 342 20,100  Level Cleveland Center
Sat 03:10:33 PM 40.4064 -80.9375 274° West 311 358 22,800 2,500 Climbing Cleveland Center
Sat 03:11:33 PM 40.4142 -81.0631 275° West 333 383 25,100 1,773 Climbing Cleveland Center
Sat 03:13:29 PM 40.4225 -81.2986 273° West 360 414 28,000 1,483 Climbing Indianapolis Center
Sat 03:14:31 PM 40.4289 -81.4372 274° West 373 429 29,500 1,951 Climbing Indianapolis Center
Sat 03:15:32 PM 40.4361 -81.5981 273° West 374 430 32,000 1,230 Climbing Indianapolis Center
Sat 03:16:33 PM 40.4419 -81.7344 273° West 371 427 32,000 439 Level Indianapolis Center
Sat 03:17:35 PM 40.4336 -81.8742 266° West 384 442 32,900 1,024 Climbing Indianapolis Center
Sat 03:18:36 PM 40.4178 -82.0156 262° West 387 445 34,100 1,659 Climbing Indianapolis Center
Sat 03:19:38 PM 40.4017 -82.1583 262° West 390 449 36,300 1,610 Climbing Indianapolis Center
Sat 03:20:39 PM 40.3853 -82.2922 261° West 373 429 37,400 878 Climbing Indianapolis Center
Sat 03:21:41 PM 40.3697 -82.4319 262° West 382 440 38,100 683 Climbing Indianapolis Center
Sat 03:22:42 PM 40.3519 -82.5750 261° West 390 449 38,800 732 Climbing Indianapolis Center
Sat 03:23:44 PM 40.3364 -82.7194 262° West 394 453 39,600 585 Climbing Indianapolis Center
Sat 03:24:45 PM 40.3167 -82.8642 260° West 399 459 40,000 195 Climbing Indianapolis Center
Sat 03:25:47 PM 40.3039 -83.0097 263° West 399 459 40,000  Level Indianapolis Center
Sat 03:26:48 PM 40.2933 -83.1542 265° West 399 459 40,000  Level Indianapolis Center
Sat 03:27:50 PM 40.2786 -83.3203 263° West 393 452 40,000  Level Indianapolis Center
Sat 03:28:51 PM 40.2675 -83.4639 264° West 396 456 40,000  Level Indianapolis Center
Sat 03:29:53 PM 40.2547 -83.6047 263° West 392 451 40,000  Level Indianapolis Center
Sat 03:30:54 PM 40.2419 -83.7450 263° West 388 447 40,000  Level Indianapolis Center
Sat 03:31:56 PM 40.2294 -83.8842 263° West 386 444 40,000  Level Indianapolis Center
Sat 03:32:57 PM 40.2172 -84.0236 263° West 383 441 40,000  Level Indianapolis Center
Sat 03:33:59 PM 40.2044 -84.1636 263° West 386 444 40,000  Level Indianapolis Center
Sat 03:35:00 PM 40.1919 -84.3047 263° West 390 449 40,000  Level Indianapolis Center
Sat 03:36:02 PM 40.1781 -84.4461 263° West 390 449 40,000  Level Indianapolis Center
Sat 03:37:03 PM 40.1625 -84.6114 263° West 390 449 40,000  Level Indianapolis Center
Sat 03:38:05 PM 40.1492 -84.7550 263° West 394 453 40,000  Level Indianapolis Center
Sat 03:39:06 PM 40.1331 -84.8972 262° West 393 452 40,000  Level Indianapolis Center
Sat 03:40:08 PM 40.1211 -85.0403 264° West 395 455 40,000  Level Indianapolis Center
Sat 03:41:09 PM 40.1058 -85.1844 262° West 397 457 40,000  Level Indianapolis Center
Sat 03:42:11 PM 40.0906 -85.3289 262° West 399 459 40,000  Level Indianapolis Center
Sat 03:43:12 PM 40.0767 -85.4728 263° West 396 456 40,000  Level Indianapolis Center
Sat 03:44:14 PM 40.0608 -85.6158 262° West 395 455 40,000  Level Indianapolis Center
Sat 03:44:51 PM 40.0500 -85.7100 261° West 394 453 40,000  Level Indianapolis Center
Sat 03:45:52 PM 40.0358 -85.8536 263° West 394 453 40,000  Level Indianapolis Center
Sat 03:46:54 PM 40.0194 -85.9981 262° West 394 453 40,000  Level Indianapolis Center
Sat 03:47:55 PM 40.0044 -86.1400 262° West 394 453 40,000  Level Indianapolis Center
Sat 03:48:17 PM 39.9981 -86.1967 262° West 398 458 40,000  Level Chicago Center
Sat 03:49:19 PM 39.9828 -86.3406 262° West 401 461 40,000  Level Chicago Center
Sat 03:49:58 PM 39.9728 -86.4281 262° West 400 460 40,000  Level Indianapolis Center
Sat 03:51:00 PM 39.9567 -86.5719 262° West 400 460 40,000  Level Indianapolis Center
Sat 03:52:01 PM 39.9397 -86.7164 261° West 402 463 40,000  Level Indianapolis Center
Sat 03:53:03 PM 39.9231 -86.8594 261° West 400 460 40,000  Level Indianapolis Center
Sat 03:54:04 PM 39.9039 -87.0314 262° West 399 459 40,000  Level Indianapolis Center
Sat 03:55:06 PM 39.8872 -87.1736 261° West 397 457 40,000  Level Indianapolis Center
Sat 03:56:07 PM 39.8697 -87.3156 261° West 396 456 40,000  Level Indianapolis Center
Sat 03:57:09 PM 39.8525 -87.4547 261° West 392 451 40,000  Level Indianapolis Center
Sat 03:58:10 PM 39.8356 -87.5953 261° West 393 452 40,000  Level Indianapolis Center
Sat 03:59:12 PM 39.8186 -87.7364 261° West 394 453 40,000  Level Indianapolis Center
Sat 04:00:13 PM 39.8008 -87.8781 261° West 395 455 40,000  Level Indianapolis Center
Sat 04:01:14 PM 39.7833 -88.0200 261° West 396 456 40,000  Level Indianapolis Center
Sat 04:02:16 PM 39.7650 -88.1617 260° West 397 457 40,000  Level Indianapolis Center
Sat 04:03:17 PM 39.7467 -88.3044 261° West 398 458 40,000  Level Indianapolis Center
Sat 04:04:19 PM 39.7242 -88.4764 260° West 399 459 40,000  Level Indianapolis Center
Sat 04:05:20 PM 39.7058 -88.6192 261° West 400 460 40,000  Level Indianapolis Center
Sat 04:06:21 PM 39.6881 -88.7625 261° West 401 461 40,000  Level Indianapolis Center
Sat 04:07:23 PM 39.6686 -88.9064 260° West 401 461 40,000  Level Indianapolis Center
Sat 04:08:24 PM 39.6500 -89.0506 261° West 403 464 40,000  Level Indianapolis Center
Sat 04:09:29 PM 39.6247 -89.2111 258° West 407 468 40,000  Level Kansas City Center
Sat 04:10:32 PM 39.6075 -89.3419 260° West 405 466 40,000  Level Kansas City Center
Sat 04:11:33 PM 39.5875 -89.4856 260° West 406 467 40,000  Level Kansas City Center
Sat 04:12:35 PM 39.5631 -89.6578 260° West 407 468 40,000  Level Kansas City Center
Sat 04:13:35 PM 39.5431 -89.8003 260° West 406 467 40,000  Level Kansas City Center
Sat 04:14:38 PM 39.5225 -89.9417 259° West 403 464 40,000  Level Kansas City Center
Sat 04:15:39 PM 39.5025 -90.0842 260° West 404 465 40,000  Level Kansas City Center
Sat 04:16:40 PM 39.4811 -90.2264 259° West 405 466 40,000  Level Kansas City Center
Sat 04:17:43 PM 39.4603 -90.3700 259° West 407 468 40,000  Level Kansas City Center
Sat 04:18:44 PM 39.4389 -90.5128 259° West 408 470 40,000  Level Kansas City Center
Sat 04:19:46 PM 39.4133 -90.6847 259° West 408 470 40,000  Level Kansas City Center
Sat 04:20:48 PM 39.3914 -90.8250 259° West 404 465 40,000  Level Kansas City Center
Sat 04:21:50 PM 39.3706 -90.9686 259° West 407 468 40,000  Level Kansas City Center
Sat 04:22:50 PM 39.3481 -91.1083 258° West 403 464 40,000  Level Kansas City Center
Sat 04:23:51 PM 39.3267 -91.2483 259° West 401 461 40,000  Level Kansas City Center
Sat 04:24:55 PM 39.3039 -91.3892 258° West 402 463 40,000  Level Kansas City Center
Sat 04:25:56 PM 39.2772 -91.5572 258° West 401 461 40,000  Level Kansas City Center
Sat 04:26:57 PM 39.2564 -91.6953 259° West 397 457 40,000  Level Kansas City Center
Sat 04:28:00 PM 39.2319 -91.8483 258° West 399 459 40,000  Level Kansas City Center
Sat 04:29:01 PM 39.2097 -91.9892 259° West 400 460 40,000  Level Kansas City Center
Sat 04:30:02 PM 39.1864 -92.1292 258° West 401 461 40,000  Level Kansas City Center
Sat 04:31:06 PM 39.1619 -92.2672 257° West 399 459 40,000  Level Kansas City Center
Sat 04:32:06 PM 39.1389 -92.4086 258° West 400 460 40,000  Level Kansas City Center
Sat 04:33:06 PM 39.1144 -92.5536 258° West 407 468 40,000  Level Kansas City Center
Sat 04:34:10 PM 39.0911 -92.6922 258° West 404 465 40,000  Level Kansas City Center
Sat 04:35:11 PM 39.0628 -92.8578 258° West 406 467 40,000  Level Kansas City Center
Sat 04:36:12 PM 39.0386 -92.9956 257° West 402 463 40,000  Level Kansas City Center
Sat 04:37:13 PM 39.0144 -93.1364 258° West 403 464 40,000  Level Kansas City Center
Sat 04:38:17 PM 38.9883 -93.2836 257° West 403 464 40,000  Level Kansas City Center
Sat 04:39:18 PM 38.9642 -93.4228 257° West 402 463 40,000  Level Kansas City Center
Sat 04:40:18 PM 38.9386 -93.5675 257° West 409 471 40,000  Level Kansas City Center
Sat 04:41:22 PM 38.9131 -93.7097 257° West 410 472 40,000  Level Kansas City Center
Sat 04:42:23 PM 38.8872 -93.8639 258° West 407 468 40,000  Level Kansas City Center
Sat 04:43:24 PM 38.8578 -94.0194 256° West 408 470 40,000  Level Kansas City Center
Sat 04:44:28 PM 38.8339 -94.1539 257° West 405 466 40,000  Level Kansas City Center
Sat 04:45:27 PM 38.8094 -94.2875 257° West 403 464 40,000  Level Kansas City Center
Sat 04:46:30 PM 38.7806 -94.4436 257° West 401 461 40,000  Level Kansas City Center
Sat 04:47:32 PM 38.7553 -94.5756 256° West 398 458 40,000  Level Kansas City Center
Sat 04:48:33 PM 38.7261 -94.7294 256° West 397 457 40,000  Level Kansas City Center
Sat 04:49:34 PM 38.7014 -94.8606 256° West 396 456 40,000  Level Kansas City Center
Sat 04:50:36 PM 38.6761 -94.9931 256° West 399 459 40,000  Level Kansas City Center
Sat 04:51:39 PM 38.6467 -95.1475 256° West 398 458 40,000  Level Kansas City Center
Sat 04:52:40 PM 38.6214 -95.2797 256° West 398 458 40,000  Level Kansas City Center
Sat 04:53:43 PM 38.5911 -95.4378 256° West 407 468 40,000  Level Kansas City Center
Sat 04:54:44 PM 38.5639 -95.5717 255° West 407 468 40,000  Level Kansas City Center
Sat 04:55:45 PM 38.5339 -95.7269 256° West 402 463 40,000  Level Kansas City Center
Sat 04:56:46 PM 38.5075 -95.8625 256° West 408 470 40,000  Level Kansas City Center
Sat 04:57:49 PM 38.4808 -95.9961 256° West 407 468 40,000  Level Kansas City Center
Sat 04:58:54 PM 38.4486 -96.1511 255° West 403 464 40,000  Level Kansas City Center
Sat 04:59:54 PM 38.4214 -96.2833 255° West 403 464 40,000  Level Kansas City Center
Sat 05:00:55 PM 38.3894 -96.4394 255° West 406 467 40,000  Level Kansas City Center
Sat 05:01:58 PM 38.3600 -96.5833 255° West 409 471 40,000  Level Kansas City Center
Sat 05:02:58 PM 38.3322 -96.7211 256° West 403 464 40,000  Level Kansas City Center
Sat 05:04:02 PM 38.3028 -96.8583 255° West 402 463 40,000  Level Kansas City Center
Sat 05:05:03 PM 38.2747 -96.9956 255° West 402 463 40,000  Level Kansas City Center
Sat 05:06:04 PM 38.2450 -97.1344 255° West 406 467 40,000  Level Kansas City Center
Sat 05:07:08 PM 38.2156 -97.2728 255° West 406 467 40,000  Level Kansas City Center
Sat 05:08:08 PM 38.1806 -97.4375 255° West 404 465 40,000  Level Kansas City Center
Sat 05:09:10 PM 38.1481 -97.5792 254° West 405 466 40,000  Level Kansas City Center
Sat 05:10:11 PM 38.1186 -97.7169 255° West 406 467 40,000  Level Kansas City Center
Sat 05:11:14 PM 38.0853 -97.8689 254° West 410 472 40,000  Level Kansas City Center
Sat 05:12:16 PM 38.0556 -98.0067 255° West 407 468 40,000  Level Kansas City Center
Sat 05:13:17 PM 38.0236 -98.1506 254° West 402 463 40,000  Level Kansas City Center
Sat 05:14:17 PM 37.9956 -98.2800 255° West 401 461 40,000  Level Kansas City Center
Sat 05:15:19 PM 37.9653 -98.4153 254° West 401 461 40,000  Level Kansas City Center
Sat 05:16:23 PM 37.9342 -98.5517 254° West 403 464 40,000  Level Kansas City Center
Sat 05:17:24 PM 37.9028 -98.6853 253° West 400 460 40,000  Level Kansas City Center
Sat 05:18:25 PM 37.8725 -98.8211 254° West 400 460 40,000  Level Kansas City Center
Sat 05:19:26 PM 37.8417 -98.9567 254° West 401 461 40,000  Level Kansas City Center
Sat 05:20:29 PM 37.8028 -99.1192 253° West 402 463 40,000  Level Kansas City Center
Sat 05:21:30 PM 37.7728 -99.2564 255° West 404 465 40,000  Level Kansas City Center
Sat 05:22:31 PM 37.7406 -99.3919 253° West 404 465 40,000  Level Kansas City Center
Sat 05:23:33 PM 37.7056 -99.5322 253° West 404 465 40,000  Level Kansas City Center
Sat 05:24:36 PM 37.6439 -99.6739 241° Southwest 408 470 40,000  Level Kansas City Center
Sat 05:25:37 PM 37.5931 -99.7964 242° Southwest 410 472 40,000  Level Kansas City Center
Sat 05:26:40 PM 37.5428 -99.9186 243° Southwest 410 472 40,000  Level Kansas City Center
Sat 05:27:41 PM 37.4844 -100.0617 243° Southwest 410 472 40,000  Level Kansas City Center
Sat 05:28:42 PM 37.4339 -100.1814 242° Southwest 406 467 40,000  Level Kansas City Center
Sat 05:29:45 PM 37.3842 -100.3261 247° West 406 467 40,000  Level Kansas City Center
Sat 05:30:46 PM 37.3556 -100.4544 254° West 397 457 40,000  Level Kansas City Center
Sat 05:31:47 PM 37.3269 -100.5817 254° West 394 453 40,000  Level Kansas City Center
Sat 05:32:48 PM 37.2917 -100.7303 253° West 395 455 40,000  Level Kansas City Center
Sat 05:33:52 PM 37.2619 -100.8586 254° West 397 457 40,000  Level Kansas City Center
Sat 05:34:52 PM 37.2267 -101.0097 254° West 400 460 40,000  Level Kansas City Center
Sat 05:35:56 PM 37.1958 -101.1386 253° West 401 461 40,000  Level Kansas City Center
Sat 05:36:55 PM 37.1642 -101.2697 253° West 406 467 40,000  Level Kansas City Center
Sat 05:37:59 PM 37.1286 -101.4228 254° West 408 470 40,000  Level Kansas City Center
Sat 05:38:20 PM 37.1178 -101.4678 253° West 410 472 40,000  Level Albuquerque Center
Sat 05:39:21 PM 37.0800 -101.6208 253° West 411 473 40,000  Level Albuquerque Center
Sat 05:40:23 PM 37.0489 -101.7519 253° West 410 472 40,000  Level Albuquerque Center
Sat 05:41:25 PM 37.0183 -101.8825 254° West 409 471 40,000  Level Albuquerque Center
Sat 05:42:26 PM 36.9814 -102.0306 253° West 400 460 40,000  Level Albuquerque Center
Sat 05:43:28 PM 36.9506 -102.1589 253° West 401 461 40,000  Level Albuquerque Center
Sat 05:44:29 PM 36.9125 -102.3103 253° West 407 468 40,000  Level Albuquerque Center
Sat 05:45:31 PM 36.8756 -102.4519 252° West 407 468 40,000  Level Albuquerque Center
Sat 05:46:32 PM 36.8450 -102.5764 253° West 412 474 40,000  Level Albuquerque Center
Sat 05:47:34 PM 36.8064 -102.7292 253° West 413 475 40,000  Level Albuquerque Center
Sat 05:48:36 PM 36.7731 -102.8606 252° West 413 475 40,000  Level Albuquerque Center
Sat 05:49:37 PM 36.7347 -103.0142 253° West 414 476 40,000  Level Albuquerque Center
Sat 05:50:39 PM 36.7008 -103.1442 252° West 413 475 40,000  Level Albuquerque Center
Sat 05:51:40 PM 36.6681 -103.2725 252° West 408 470 40,000  Level Albuquerque Center
Sat 05:52:42 PM 36.6317 -103.4081 252° West 404 465 40,000  Level Albuquerque Center
Sat 05:53:43 PM 36.5972 -103.5419 252° West 404 465 40,000  Level Albuquerque Center
Sat 05:54:45 PM 36.5567 -103.6969 252° West 403 464 40,000  Level Albuquerque Center
Sat 05:55:47 PM 36.5219 -103.8308 252° West 403 464 40,000  Level Albuquerque Center
Sat 05:56:48 PM 36.4861 -103.9639 252° West 404 465 40,000  Level Albuquerque Center
Sat 05:57:50 PM 36.4503 -104.0953 251° West 401 461 40,000  Level Albuquerque Center
Sat 05:58:51 PM 36.4156 -104.2261 252° West 398 458 40,000  Level Albuquerque Center
Sat 05:59:53 PM 36.3786 -104.3597 251° West 403 464 40,000  Level Albuquerque Center
Sat 06:00:54 PM 36.3419 -104.4942 251° West 408 470 40,000  Level Albuquerque Center
Sat 06:01:56 PM 36.3069 -104.6264 252° West 405 466 40,000  Level Albuquerque Center
Sat 06:02:57 PM 36.2706 -104.7581 251° West 402 463 40,000  Level Albuquerque Center
Sat 06:03:59 PM 36.2333 -104.8925 251° West 408 470 40,000  Level Albuquerque Center
Sat 06:05:00 PM 36.1900 -105.0486 251° West 409 471 40,000  Level Albuquerque Center
Sat 06:06:02 PM 36.1536 -105.1803 251° West 405 466 40,000  Level Albuquerque Center
Sat 06:07:03 PM 36.1172 -105.3092 251° West 399 459 40,000  Level Albuquerque Center
Sat 06:08:05 PM 36.0803 -105.4392 251° West 398 458 40,000  Level Albuquerque Center
Sat 06:09:07 PM 36.0467 -105.5567 251° West 396 456 40,000  Level Albuquerque Center
Sat 06:10:08 PM 36.0122 -105.6828 251° West 392 451 40,000  Level Albuquerque Center
Sat 06:11:10 PM 35.9753 -105.8103 250° West 393 452 40,000  Level Albuquerque Center
Sat 06:12:11 PM 35.9322 -105.9617 251° West 391 450 40,000  Level Albuquerque Center
Sat 06:13:13 PM 35.8967 -106.0875 251° West 390 449 40,000  Level Albuquerque Center
Sat 06:14:14 PM 35.8592 -106.2200 251° West 392 451 40,000  Level Albuquerque Center
Sat 06:15:16 PM 35.8244 -106.3414 251° West 393 452 40,000  Level Albuquerque Center
Sat 06:16:18 PM 35.7847 -106.4783 250° West 384 442 40,000  Level Albuquerque Center
Sat 06:17:19 PM 35.7492 -106.5981 250° West 387 445 40,000  Level Albuquerque Center
Sat 06:18:21 PM 35.7089 -106.7372 250° West 388 447 40,000  Level Albuquerque Center
Sat 06:19:22 PM 35.6744 -106.8556 250° West 384 442 40,000  Level Albuquerque Center
Sat 06:20:24 PM 35.6361 -106.9817 250° West 385 443 40,000  Level Albuquerque Center
Sat 06:21:26 PM 35.6011 -107.1028 250° West 382 440 40,000  Level Albuquerque Center
Sat 06:22:27 PM 35.5636 -107.2250 249° West 378 435 40,000  Level Albuquerque Center
Sat 06:23:29 PM 35.5228 -107.3603 250° West 377 434 40,000  Level Albuquerque Center
Sat 06:24:30 PM 35.4881 -107.4775 250° West 379 436 40,000  Level Albuquerque Center
Sat 06:25:32 PM 35.4533 -107.5931 250° West 378 435 40,000  Level Albuquerque Center
Sat 06:26:33 PM 35.4114 -107.7300 249° West 382 440 40,000  Level Albuquerque Center
Sat 06:27:35 PM 35.3756 -107.8481 250° West 384 442 40,000  Level Albuquerque Center
Sat 06:28:36 PM 35.3328 -107.9856 249° West 385 443 40,000  Level Albuquerque Center
Sat 06:29:38 PM 35.2961 -108.1039 249° West 387 445 40,000  Level Albuquerque Center
Sat 06:30:39 PM 35.2603 -108.2219 250° West 387 445 40,000  Level Albuquerque Center
Sat 06:31:41 PM 35.2172 -108.3619 249° West 390 449 40,000  Level Albuquerque Center
Sat 06:32:42 PM 35.1806 -108.4822 250° West 392 451 40,000  Level Albuquerque Center
Sat 06:33:44 PM 35.1364 -108.6208 249° West 392 451 40,000  Level Albuquerque Center
Sat 06:34:45 PM 35.1006 -108.7381 250° West 388 447 40,000  Level Albuquerque Center
Sat 06:35:47 PM 35.0625 -108.8553 248° West 386 444 40,000  Level Albuquerque Center
Sat 06:36:48 PM 35.0192 -108.9928 249° West 388 447 40,000  Level Albuquerque Center
Sat 06:37:49 PM 34.9814 -109.1114 249° West 389 448 40,000  Level Albuquerque Center
Sat 06:38:51 PM 34.9411 -109.2297 247° West 392 451 40,000 -537 Level Albuquerque Center
Sat 06:39:52 PM 34.8925 -109.3633 246° West 388 447 38,900 -1,756 Descending Albuquerque Center
Sat 06:40:54 PM 34.8494 -109.4764 245° Southwest 385 443 36,400 -1,415 Descending Albuquerque Center
Sat 06:41:55 PM 34.8000 -109.6053 245° Southwest 379 436 36,000 -197 Descending Albuquerque Center
Sat 06:42:56 PM 34.7597 -109.7197 247° West 381 438 36,000  Level Albuquerque Center
Sat 06:43:58 PM 34.7189 -109.8311 246° West 379 436 36,000  Level Albuquerque Center
Sat 06:44:59 PM 34.6692 -109.9594 245° Southwest 377 434 36,000  Level Albuquerque Center
Sat 06:46:01 PM 34.6294 -110.0703 246° West 375 432 36,000  Level Albuquerque Center
Sat 06:47:02 PM 34.5842 -110.2044 248° West 380 437 36,000 -49 Level Albuquerque Center
Sat 06:48:03 PM 34.5425 -110.3142 245° Southwest 377 434 35,900 -1,415 Descending Albuquerque Center
Sat 06:49:05 PM 34.4983 -110.4169 242° Southwest 369 425 33,100 -2,000 Descending Albuquerque Center
Sat 06:50:06 PM 34.4569 -110.5392 248° West 387 445 31,800 -1,721 Descending Albuquerque Center
Sat 06:51:07 PM 34.4133 -110.6522 245° Southwest 375 432 29,600 -2,146 Descending Albuquerque Center
Sat 06:52:09 PM 34.3675 -110.7597 243° Southwest 365 420 27,400 -2,341 Descending Albuquerque Center
Sat 06:53:10 PM 34.2908 -110.8769 232° Southwest 375 432 24,800 -2,341 Descending Albuquerque Center
Sat 06:54:12 PM 34.2233 -110.9644 227° Southwest 363 418 22,600 -2,098 Descending Albuquerque Center
Sat 06:55:13 PM 34.1578 -111.0506 227° Southwest 352 405 20,500 -2,016 Descending Albuquerque Center
Sat 06:56:14 PM 34.0931 -111.1336 227° Southwest 343 395 18,500 -2,066 Descending Albuquerque Center
Sat 06:57:15 PM 34.0258 -111.2200 227° Southwest 348 400 16,300 -2,146 Descending Albuquerque Center
Sat 06:58:17 PM 33.9589 -111.3058 227° Southwest 350 403 14,100 -1,951 Descending Albuquerque Center
Sat 06:59:18 PM 33.8925 -111.3894 226° Southwest 346 398 12,300 -1,317 Descending Albuquerque Center
Sat 07:00:20 PM 33.8225 -111.4556 218° Southwest 321 369 11,400 -683 Descending Albuquerque Center
Sat 07:01:21 PM 33.7892 -111.5281 241° Southwest 255 293 10,900 -787 Descending Albuquerque Center
Sat 07:02:22 PM 33.7739 -111.6042 256° West 235 270 9,800 -1,131 Descending Albuquerque Center
Sat 07:03:23 PM 33.7128 -111.6303 200° South 254 292 8,600 -878 Descending Albuquerque Center
Sat 07:04:25 PM 33.6289 -111.6292 179° South 250 288 8,000 -488 Descending Albuquerque Center
Sat 07:05:26 PM 33.5572 -111.6275 179° South 255 293 7,600 -639 Descending Albuquerque Center
Sat 07:06:27 PM 33.4969 -111.6444 193° South 235 270 6,700 -984 Descending Albuquerque Center
Sat 07:07:28 PM 33.4742 -111.7133 248° West 224 258 5,600 -1,073 Descending Albuquerque Center
Sat 07:08:30 PM 33.4603 -111.7853 257° West 221 254 4,500 -1,024 Descending Albuquerque Center
Sat 07:09:31 PM 33.4469 -111.8514 256° West 207 238 3,500 -934 Descending Albuquerque Center
Sat 07:10:32 PM 33.4403 -111.9019 261° West 158 182 2,600 -738 Descending Albuquerque Center
Sat 07:11:33 PM 33.4411 -111.9447 271° West 132 152 2,000 -732 Descending Albuquerque Center
Sat 07:12:35 PM 33.4392 -111.9908 267° West 107 123 1,100 -871 Descending Albuquerque Center
Sat 07:14:00 PM 33.4343 -112.0116 270° West  Level Estimated

Login

Don't have an account? Register now (free) for customized features, flight alerts, and more!